WEATHER DATA

YESTERDAY
Time Temp. Dewp. Hum. Wind dir Wind speed Wind gust Bar. 1h Prec. 24h Prec.
00:02 10.6 3.2 60 0 0 1029.2 0.0000 0.0000
00:13 10.4 3.2 61 0 0 1029.1 0.0000 0.0000
00:23 10.2 3 61 0 0 1029.2 0.0000 0.0000
00:37 9.9 3 62 0 0 1029.1 0.0000 0.0000
00:48 9.7 2.8 62 0 0 1029.1 0.0000 0.0000
00:57 9.5 2.6 62 0 0 1029.1 0.0000 0.0000
01:07 9.3 2.6 63 0 0 1029.1 0.0000 0.0000
01:17 9 2.6 64 0 0 1028.9 0.0000 0.0000
01:27 8.8 2.6 65 0 0 1028.7 0.0000 0.0000
01:37 8.6 2.4 65 0 0 1028.6 0.0000 0.0000
01:47 8.4 2.4 66 0 0 1028.6 0.0000 0.0000
01:58 8.2 2.2 66 0 0 1028.4 0.0000 0.0000
02:07 8.1 2.3 67 0 0 1028.3 0.0000 0.0000
02:17 7.8 2.1 67 0 0 1028.2 0.0000 0.0000
02:28 7.7 2.2 68 0 0 1028 0.0000 0.0000
02:36 7.5 2 68 0 0 1027.9 0.0000 0.0000
02:46 7.3 2 69 0 0 1027.7 0.0000 0.0000
02:57 7.2 1.9 69 0 0 1027.7 0.0000 0.0000
03:07 7 1.9 70 0 0 1027.6 0.0000 0.0000
03:16 6.9 1.8 70 0 0 1027.6 0.0000 0.0000
03:26 6.7 1.6 70 0 0 1027.5 0.0000 0.0000
03:37 6.5 1.6 71 0 0 1027.4 0.0000 0.0000
03:46 6.4 1.5 71 0 0 1027.3 0.0000 0.0000
03:56 6.2 1.5 72 0 0 1027.3 0.0000 0.0000
04:07 6.1 1.4 72 0 0 1027.2 0.0000 0.0000
04:17 6 1.3 72 0 0 1027.1 0.0000 0.0000
04:26 5.9 1.2 72 0 0 1027.1 0.0000 0.0000
04:37 5.7 1.2 73 0 0 1027.1 0.0000 0.0000
04:47 5.5 1.1 73 0 0 1027 0.0000 0.0000
04:56 5.4 1 73 0 0 1026.9 0.0000 0.0000
05:06 5.2 0.8 73 0 0 1026.9 0.0000 0.0000
05:19 4.9 0.7 74 0 0 1026.8 0.0000 0.0000
05:29 4.8 0.8 75 0 0 1026.7 0.0000 0.0000
05:39 4.7 0.7 75 0 0 1026.7 0.0000 0.0000
05:49 4.5 0.5 75 0 0 1026.6 0.0000 0.0000
05:59 4.4 0.4 75 0 0 1026.6 0.0000 0.0000
06:09 4.2 0.4 76 0 0 1026.5 0.0000 0.0000
06:19 4.1 0.4 77 0 0 1026.4 0.0000 0.0000
06:29 4.1 0.4 77 0 0 1026.4 0.0000 0.0000
06:39 4 0.3 77 0 0 1026.5 0.0000 0.0000
06:49 3.9 0.2 77 0 0 1026.5 0.0000 0.0000
06:59 3.9 0.4 78 0 0 1026.3 0.0000 0.0000
07:09 3.9 0.4 78 0 0 1026.4 0.0000 0.0000
07:19 3.9 0.6 79 0 0 1026.3 0.0000 0.0000
07:22 3.9 0.6 79 0 0 1026.3 0.0000 0.0000
07:32 3.9 0.6 79 0 0 1026.2 0.0000 0.0000
07:42 4 0.7 79 0 0 1026.2 0.0000 0.0000
07:52 4.2 1.1 80 0 0 1026.1 0.0000 0.0000
08:02 4.3 1.2 80 0 0 1026.1 0.0000 0.0000
08:12 4.5 1.5 81 0 0 1026.1
08:26 5 2.2 82 0 0 1025.9 0.0000 0.0000
08:36 5.6 2.8 82 0 0 1025.8 0.0000 0.0000
08:45 6.3 3.5 82 0 0 1025.8 0.0000 0.0000
08:55 7.5 4.5 81 0 0 1025.8 0.0000 0.0000
09:06 9 5 76 0 0 1025.7 0.0000 0.0000
09:15 10.4 5.8 73 0 0 1025.6 0.0000 0.0000
09:25 12 6.3 68 0 0 1025.5 0.0000 0.0000
09:36 13.5 5.7 59 0 0 1025.4 0.0000 0.0000
09:46 15.1 6.1 55 0 0 1025.3 0.0000 0.0000
09:55 16.3 5.6 49 0 0 1025.3 0.0000 0.0000
10:06 17.5 5.4 45 0 0 1025.2
10:16 18.6 5.5 42 0 0 1025.2
10:25 19.3 5 39 0 0 1025.2
10:35 19.8 5.1 38 0 0 1025.1 0.0000 0.0000
10:45 20.4 4.8 36 0 0 1025 0.0000 0.0000
10:55 21 5 35 0 0 1024.9 0.0000 0.0000
11:04 21.4 5.3 35 0 0 1024.8 0.0000 0.0000
11:15 21.9 5.3 34 0 0 1024.6 0.0000 0.0000
11:25 22.1 4.2 31 0 0 1024.6 0.0000 0.0000
11:35 22.2 4.3 31 0 0 1024.5 0.0000 0.0000
11:45 22.6 3.7 29 0 0 1024.4 0.0000 0.0000
11:55 22.8 3.9 29 0 0 1024.4 0.0000 0.0000
12:05 23.2 4.2 29 0 0 1024.3 0.0000 0.0000
12:15 23.4 3.9 28 0 0 1024.2 0.0000 0.0000
12:25 23.6 3.5 27 0 0 1024 0.0000 0.0000
12:35 23.7 3.6 27 0 0 1024 0.0000 0.0000
12:45 23.9 3.8 27 0 0 1023.8 0.0000 0.0000
12:55 24.1 3.4 26 0 0 1023.7 0.0000 0.0000
13:05 24.2 4 27 0 0 1023.5 0.0000 0.0000
13:15 24.2 4 27 0 0 1023.5 0.0000 0.0000
13:25 24.2 4 27 0 0 1023.3 0.0000 0.0000
13:35 24.4 4.2 27 0 0 1023.2 0.0000 0.0000
13:45 24.5 4.3 27 0 0 1023.2 0.0000 0.0000
13:55 24.6 3.8 26 0 0 1023 0.0000 0.0000
14:05 24.7 4.5 27 0 0 1022.9 0.0000 0.0000
14:15 24.9 4.1 26 0 0 1022.8 0.0000 0.0000
14:25 24.8 3.5 25 0 0 1022.7 0.0000 0.0000
14:36 24.8 2.9 24 0 0 1022.5 0.0000 0.0000
14:45 24.8 2.9 24 0 0 1022.2 0.0000 0.0000
14:55 24.8 2.9 24 0 0 1022.1 0.0000 0.0000
15:05 24.9 3 24 0 0 1021.9 0.0000 0.0000
15:15 24.9 3 24 0 0 1021.9 0.0000 0.0000
15:25 24.9 3 24 0 0 1021.7 0.0000 0.0000
15:35 24.9 1.7 22 0 0 1021.6 0.0000 0.0000
15:46 24.8 3.5 25 0 0 1021.5 0.0000 0.0000
15:55 24.8 2.3 23 0 0 1021.3 0.0000 0.0000
16:05 24.7 2.8 24 0 0 1021.2 0.0000 0.0000
16:16 24.7 2.2 23 0 0 1021.2 0.0000 0.0000
16:26 24.6 2.1 23 0 0 1021 0.0000 0.0000
16:35 24.5 2.6 24 0 0 1020.9 0.0000 0.0000
16:45 24.5 3.2 25 0 0 1020.8 0.0000 0.0000
16:56 24.4 1.9 23 0 0 1020.7 0.0000 0.0000
17:05 24.3 2.5 24 0 0 1020.6 0.0000 0.0000
17:15 24.3 3 25 0 0 1020.5 0.0000 0.0000
17:26 24.4 2.5 24 0 0 1020.5 0.0000 0.0000
17:36 24.8 3.5 25 0 0 1020.3 0.0000 0.0000
17:45 25.8 3.1 23 0 0 1020.3 0.0000 0.0000
17:55 26.6 3.2 22 0 0 1020.2 0.0000 0.0000
18:06 27.6 3.3 21 0 0 1020.2 0.0000 0.0000
18:15 28.4 3.3 20 0 0 1020.1 0.0000 0.0000
18:25 29.1 3.9 20 0 0 1020 0.0000 0.0000
18:36 29.8 3.7 19 0 0 1019.9 0.0000 0.0000
18:46 30 4.6 20 0 0 1019.8 0.0000 0.0000
18:55 30.2 4.8 20 0 0 1019.7 0.0000 0.0000
19:06 28.4 4 21 0 0 1019.6 0.0000 0.0000
19:16 26.3 3.5 23 0 0 1019.5 0.0000 0.0000
19:25 24.9 4.6 27 0 0 1019.5 0.0000 0.0000
19:35 23.5 4.5 29 0 0 1019.4 0.0000 0.0000
19:46 22.3 4.8 32 0 0 1019.4 0.0000 0.0000
19:56 21.1 4.2 33 0 0 1019.5 0.0000 0.0000
20:05 20.2 3.9 34 0 0 1019.5 0.0000 0.0000
20:16 19.1 3.7 36 0 0 1019.6 0.0000 0.0000
20:26 18.2 3.3 37 0 0 1019.6 0.0000 0.0000
20:35 17.4 3.3 39 0 0 1019.6 0.0000 0.0000
20:46 16.6 3 40 0 0 1019.7 0.0000 0.0000
20:56 16 2.8 41 0 0 1019.7 0.0000 0.0000
21:06 15.3 2.5 42 0 0 1019.7 0.0000 0.0000
21:15 14.8 2.4 43 0 0 1019.8 0.0000 0.0000
21:26 14.2 2.1 44 0 0 1019.8 0.0000 0.0000
21:36 13.6 1.9 45 0 0 1019.7 0.0000 0.0000
21:45 13.2 1.8 46 0 0 1019.7 0.0000 0.0000
21:56 12.7 1.7 47 0 0 1019.6 0.0000 0.0000
22:06 12.3 1.6 48 0 0 1019.6 0.0000 0.0000
22:16 11.9 1.5 49 0 0 1019.5 0.0000 0.0000
22:25 11.5 1.4 50 0 0 1019.5 0.0000 0.0000
22:36 11.2 1.4 51 0 0 1019.5 0.0000 0.0000
22:46 10.9 1.4 52 0 0 1019.5 0.0000 0.0000
22:55 10.6 1.4 53 0 0 1019.4 0.0000 0.0000
23:06 10.2 1.3 54 0 0 1019.4 0.0000 0.0000
23:21 9.8 1.2 55 0 0 1019.4 0.0000 0.0000
23:30 9.4 1.1 56 0 0 1019.5 0.0000 0.0000
23:41 9.2 1.1 57 0 0 1019.5 0.0000 0.0000
23:51 9 0.9 57 0 0 1019.5 0.0000 0.0000

DAY STATISTIC

2019-04-21
TEMPERATURE
AVERAGE
15.2
HIGH
30.2
18:55
LOW
3.9
06:49
PRESSURE
AVERAGE
1023.8
HIGH
1029.2
00:02
LOW
1019.4
19:35
DEWPOINT
AVERAGE
2.7
HIGH
6.3
09:25
LOW
0.2
06:49
HUMIDITY
AVERAGE
49
HIGH
82
08:26
LOW
19
18:36
WIND SPEED
AVERAGE
0.0
HIGH
0.0
08:11
WIND GUST
AVERAGE
0.0
HIGH
0.0
08:11
WIND DIRECTION
PREVAILING
%
PRECIPITATION
RAIN HOUR
0.0
RAIN DAY
0.0
TEMPERATURE (°C)
LOW
3.9
HIGH
30.2
AVERAGE
15.2
PRESSURE (hpa)
LOW
1019.4
HIGH
1029.2
AVERAGE
1023.8
DEVICE